Estación Meteorológica Peña el Pijo (Robertgarden) [ 02/03/23 03:12:03 CET ]

Fecha Hora Presion(HPa) Temp (°C) Humedad % Rocio (°C) Viento ( m/s) Direccion Lluvia 1Hora(mm) Lluvia 24H(mm) LLuvia Total(mm)
2010-Mar-26 01:01:15 1008.200 8.9 72 4.1 2.2 SE     104.63
2010-Mar-26 02:03:15 1008.300 7.9 76 3.9         104.63
2010-Mar-26 03:01:18 1008.700 7.4 69 2.1 1.9 E     104.63
2010-Mar-26 04:01:18 1008.700 6.4 67 0.7         104.63
2010-Mar-26 05:01:12 1009.200 6.1 68 0.7         104.63
2010-Mar-26 06:01:12 1009.500 6.2 68 0.7         104.63
2010-Mar-26 07:01:12 1010.600 5.8 69 0.6         104.63
2010-Mar-26 08:01:13 1010.900 6.0 69 0.8         104.63
2010-Mar-26 09:01:13 1011.700 6.7 67 1.0 1.4 SW     104.63
2010-Mar-26 10:01:12 1012.200 9.3 56 0.9         104.63
2010-Mar-26 11:01:12 1012.700 12.1 50 2.0 4.8 ENE     104.63
2010-Mar-26 12:01:12 1012.800 13.0 44 0.9 3.5 SE     104.63
2010-Mar-26 13:01:15 1012.900 15.4 39 1.5         104.63
2010-Mar-26 14:01:15 1012.300 14.9 38 1.0         104.63
2010-Mar-26 15:01:13 1012.100 15.3 37 0.6         104.63
2010-Mar-26 16:01:14 1011.900 15.3 37 0.6 2.0 E     104.63
2010-Mar-26 17:01:11 1011.900 14.4 40 1.0 0.9 SW     104.63
2010-Mar-26 18:01:13 1012.200 12.4 46 1.0         104.63
2010-Mar-26 19:01:18 1012.700 9.8 55 1.2 1.8 S     104.63
2010-Mar-26 20:01:14 1013.100 8.2 60 0.9         104.63
2010-Mar-26 21:01:16 1013.700 7.4 63 0.8         104.63
2010-Mar-26 22:01:13 1014.700 6.3 68 0.8         104.63
2010-Mar-26 23:01:12 1014.800 6.7 70 1.6 0.8 SSW     104.63

Temperatura Máxima:15°    Temperatura Mínima:
Presión Máxima:1014.800 Hpa    Presión Mínima:1008.200 Hpa


Volver